Time;durP1;ratioP1;P1;durP2;ratioP2;P2;SDS_P1;SDS_P2;PMS_P1;PMS_P2;Temp;Humidity;BMP_temperature;BMP_pressure;BME280_temperature;BME280_humidity;BME280_pressure;Samples;Min_cycle;Max_cycle;Signal;HPM_P1;HPM_P2
2022/01/10 00:01:06;;;;;;;11.60;4.72;;;2.80;99.90;;;;;;5037499;28;20032;-52
2022/01/10 00:03:31;;;;;;;20.80;5.85;;;2.70;99.90;;;;;;5037395;28;20028;-52
2022/01/10 00:05:57;;;;;;;9.82;5.28;;;2.60;99.90;;;;;;5037545;28;20025;-51
2022/01/10 00:08:23;;;;;;;16.88;5.05;;;2.60;99.90;;;;;;5037268;28;20184;-50
2022/01/10 00:10:50;;;;;;;21.00;6.25;;;2.60;99.90;;;;;;5055447;28;20029;-52
2022/01/10 00:13:16;;;;;;;12.23;4.68;;;2.60;99.90;;;;;;5037098;28;20475;-53
2022/01/10 00:15:41;;;;;;;16.73;5.22;;;2.70;99.90;;;;;;5037234;28;20070;-50
2022/01/10 00:18:07;;;;;;;13.48;4.22;;;2.70;99.90;;;;;;5037904;28;20051;-50
2022/01/10 00:20:33;;;;;;;17.60;5.25;;;2.70;99.90;;;;;;5037326;28;20025;-52
2022/01/10 00:22:59;;;;;;;13.43;5.15;;;2.80;99.90;;;;;;5054909;28;20025;-53
2022/01/10 00:25:25;;;;;;;17.63;5.00;;;2.90;99.90;;;;;;5037153;28;20054;-51
2022/01/10 00:27:53;;;;;;;14.02;4.95;;;2.80;99.90;;;;;;5037322;28;20547;-53
2022/01/10 00:30:19;;;;;;;15.02;5.57;;;2.70;99.90;;;;;;5054599;28;20110;-52
2022/01/10 00:32:45;;;;;;;13.20;5.22;;;2.80;99.90;;;;;;5036713;28;20025;-54
2022/01/10 00:35:13;;;;;;;22.02;6.20;;;2.80;99.90;;;;;;5055279;28;20105;-52
2022/01/10 00:37:41;;;;;;;17.88;5.63;;;2.90;99.90;;;;;;5036622;28;20021;-50
2022/01/10 00:40:07;;;;;;;15.77;4.88;;;3.00;99.90;;;;;;5036866;28;20025;-54
2022/01/10 00:42:33;;;;;;;13.35;5.25;;;3.00;99.90;;;;;;5036606;28;20032;-51
2022/01/10 00:45:02;;;;;;;11.20;4.25;;;3.00;99.90;;;;;;5036647;28;20027;-51
2022/01/10 00:47:28;;;;;;;14.40;4.63;;;3.10;99.90;;;;;;5054544;28;20394;-55
2022/01/10 00:49:54;;;;;;;15.07;4.80;;;3.00;99.90;;;;;;5036723;28;20116;-53
2022/01/10 00:52:19;;;;;;;10.55;5.82;;;2.90;99.90;;;;;;5035844;28;20124;-53
2022/01/10 00:54:45;;;;;;;15.82;4.88;;;2.90;99.90;;;;;;5036440;28;20079;-52
2022/01/10 00:57:11;;;;;;;18.77;5.22;;;2.90;99.90;;;;;;5054209;28;20029;-50
2022/01/10 00:59:36;;;;;;;17.52;5.00;;;2.80;99.90;;;;;;5036382;28;20017;-52
2022/01/10 01:02:02;;;;;;;15.43;5.55;;;2.80;99.90;;;;;;5036351;28;20021;-55
2022/01/10 01:04:28;;;;;;;19.23;5.53;;;2.80;99.90;;;;;;5054111;28;20078;-52
2022/01/10 01:06:54;;;;;;;11.82;5.35;;;2.80;99.90;;;;;;5036261;28;20123;-54
2022/01/10 01:09:25;;;;;;;10.23;5.05;;;2.90;99.90;;;;;;5036155;28;20029;-54
2022/01/10 01:14:36;;;;;;;11.55;5.57;;;3.00;99.90;;;;;;5054200;28;20120;-53
2022/01/10 01:25:02;;;;;;;11.27;5.82;;;3.20;99.90;;;;;;5054383;28;20119;-53
2022/01/10 01:27:28;;;;;;;16.45;5.22;;;3.30;99.90;;;;;;5053791;28;20036;-51
2022/01/10 01:29:54;;;;;;;12.82;5.38;;;3.50;99.90;;;;;;5053599;28;20407;-52
2022/01/10 01:32:19;;;;;;;17.05;6.60;;;3.50;99.90;;;;;;5053528;28;20032;-50
2022/01/10 01:34:45;;;;;;;14.57;5.78;;;3.50;99.90;;;;;;5035807;28;20052;-50
2022/01/10 01:37:11;;;;;;;17.73;5.72;;;3.60;99.90;;;;;;5036493;28;20025;-52
2022/01/10 01:39:37;;;;;;;14.65;5.30;;;3.60;99.90;;;;;;5035951;28;20072;-52
2022/01/10 01:42:18;;;;;;;13.32;4.78;;;3.60;99.90;;;;;;5053510;28;20556;-54
2022/01/10 01:44:48;;;;;;;13.57;5.63;;;3.60;99.90;;;;;;5036603;28;20025;-53
2022/01/10 01:47:14;;;;;;;9.52;4.35;;;3.60;99.90;;;;;;5053721;28;20056;-53
2022/01/10 01:49:39;;;;;;;11.93;4.20;;;3.70;99.90;;;;;;5053320;28;20493;-55
2022/01/10 01:52:05;;;;;;;9.18;4.28;;;3.60;99.90;;;;;;5035730;28;20025;-54
2022/01/10 01:54:31;;;;;;;8.73;4.93;;;3.60;99.90;;;;;;5035337;28;20028;-53
2022/01/10 01:56:57;;;;;;;8.98;4.72;;;3.60;99.90;;;;;;5036282;28;20478;-52
2022/01/10 01:59:23;;;;;;;9.05;4.63;;;3.60;99.90;;;;;;5035689;28;20049;-52
2022/01/10 02:01:49;;;;;;;13.75;5.00;;;3.70;99.90;;;;;;5036573;28;20083;-51
2022/01/10 02:04:14;;;;;;;10.15;4.60;;;3.70;99.90;;;;;;5038586;28;20025;-52
2022/01/10 02:06:51;;;;;;;13.05;5.68;;;3.60;99.90;;;;;;5041913;28;20031;-51
2022/01/10 02:09:17;;;;;;;13.52;4.82;;;3.60;99.90;;;;;;5059863;28;20052;-51
2022/01/10 02:11:43;;;;;;;9.85;4.57;;;3.60;99.90;;;;;;5059789;28;20436;-51
2022/01/10 02:14:09;;;;;;;15.50;5.38;;;3.60;99.90;;;;;;5059802;28;20040;-53
2022/01/10 02:16:44;;;;;;;10.25;4.55;;;3.40;99.90;;;;;;5041860;28;20032;-53
2022/01/10 02:19:09;;;;;;;8.52;4.75;;;3.40;99.90;;;;;;5041778;28;20116;-53
2022/01/10 02:21:36;;;;;;;13.25;6.07;;;3.30;99.90;;;;;;5059785;28;20056;-51
2022/01/10 02:24:03;;;;;;;14.70;4.55;;;3.40;99.90;;;;;;5041849;28;20025;-52
2022/01/10 02:26:29;;;;;;;19.58;5.65;;;3.50;99.90;;;;;;5059701;28;20036;-53
2022/01/10 02:28:54;;;;;;;14.07;5.80;;;3.50;99.90;;;;;;5042380;28;20040;-56
2022/01/10 02:31:20;;;;;;;9.60;5.07;;;3.40;99.90;;;;;;5041840;28;20025;-50
2022/01/10 02:33:48;;;;;;;15.60;5.30;;;3.40;99.90;;;;;;5041713;28;20028;-51
2022/01/10 02:38:48;;;;;;;13.98;5.15;;;3.40;99.90;;;;;;5059577;28;20056;-51
2022/01/10 02:41:22;;;;;;;17.90;6.25;;;3.50;99.90;;;;;;5042070;28;20017;-54
2022/01/10 02:43:48;;;;;;;11.10;4.25;;;3.50;99.90;;;;;;5042135;28;20025;-50
2022/01/10 02:46:14;;;;;;;12.98;4.45;;;3.60;99.90;;;;;;5059508;28;20047;-53
2022/01/10 02:48:40;;;;;;;8.52;4.00;;;3.60;99.90;;;;;;5059442;28;20064;-52
2022/01/10 02:51:05;;;;;;;10.70;3.58;;;3.60;99.90;;;;;;5041528;28;20032;-53
2022/01/10 02:53:31;;;;;;;14.00;4.18;;;3.50;99.90;;;;;;5059404;28;20159;-51
2022/01/10 02:55:56;;;;;;;16.48;4.70;;;3.60;99.90;;;;;;5041592;28;20112;-52
2022/01/10 02:58:22;;;;;;;16.98;4.38;;;3.60;99.90;;;;;;5042085;28;20025;-51
2022/01/10 03:00:48;;;;;;;12.52;4.50;;;3.60;99.90;;;;;;5041543;28;20493;-51
2022/01/10 03:03:13;;;;;;;13.63;5.03;;;3.60;99.90;;;;;;5059382;28;20142;-50
2022/01/10 03:05:39;;;;;;;16.70;4.63;;;3.60;99.90;;;;;;5059460;28;20422;-53
2022/01/10 03:08:05;;;;;;;12.82;4.65;;;3.60;99.90;;;;;;5041870;28;20120;-52
2022/01/10 03:10:31;;;;;;;11.32;4.82;;;3.50;99.90;;;;;;5041397;28;20029;-49
2022/01/10 03:12:59;;;;;;;15.48;4.57;;;3.30;99.90;;;;;;5041613;28;20092;-49
2022/01/10 03:15:25;;;;;;;16.05;5.13;;;3.30;99.90;;;;;;5039937;28;20083;-49
2022/01/10 03:17:50;;;;;;;16.65;4.93;;;3.40;99.90;;;;;;5056617;28;20021;-50
2022/01/10 03:20:16;;;;;;;15.10;4.80;;;3.50;99.90;;;;;;5038231;28;20017;-53
2022/01/10 03:22:42;;;;;;;14.05;4.55;;;3.50;99.90;;;;;;5038108;28;20025;-50
2022/01/10 03:25:08;;;;;;;13.00;4.30;;;3.50;99.90;;;;;;5038185;28;20025;-50
2022/01/10 03:27:33;;;;;;;11.93;5.05;;;3.50;99.90;;;;;;5038250;28;20029;-51
2022/01/10 03:29:59;;;;;;;19.35;5.70;;;3.50;99.90;;;;;;5038019;28;20037;-51
2022/01/10 03:32:25;;;;;;;14.93;4.80;;;3.50;99.90;;;;;;5038737;28;20029;-49
2022/01/10 03:34:51;;;;;;;9.75;4.43;;;3.50;99.90;;;;;;5055907;28;20028;-52
2022/01/10 03:37:17;;;;;;;8.77;4.30;;;3.50;99.90;;;;;;5055748;28;20017;-49
2022/01/10 03:39:43;;;;;;;24.83;5.10;;;3.50;99.90;;;;;;5055981;28;20021;-50
2022/01/10 03:42:08;;;;;;;16.00;5.20;;;3.40;99.90;;;;;;5038067;28;20029;-52
2022/01/10 03:44:34;;;;;;;10.57;4.25;;;3.40;99.90;;;;;;5055936;28;20033;-53
2022/01/10 03:47:01;;;;;;;15.73;4.80;;;3.40;99.90;;;;;;5037644;28;20025;-53
2022/01/10 03:49:27;;;;;;;10.30;4.57;;;3.50;99.90;;;;;;5037998;28;20426;-50
2022/01/10 03:51:52;;;;;;;12.88;4.72;;;3.50;99.90;;;;;;5055704;28;20025;-50
2022/01/10 03:54:18;;;;;;;14.48;4.85;;;3.40;99.90;;;;;;5037756;28;20025;-52
2022/01/10 03:56:44;;;;;;;14.65;5.50;;;3.40;99.90;;;;;;5055653;28;20035;-52
2022/01/10 03:59:10;;;;;;;11.57;4.97;;;3.40;99.90;;;;;;5037367;28;20045;-51
2022/01/10 04:01:38;;;;;;;15.82;5.57;;;3.40;99.90;;;;;;5055321;28;20029;-51
2022/01/10 04:04:07;;;;;;;16.33;5.82;;;3.40;99.90;;;;;;5037507;28;20029;-53
2022/01/10 04:06:34;;;;;;;11.90;5.55;;;3.50;99.90;;;;;;5037660;28;20053;-55
2022/01/10 04:09:00;;;;;;;17.15;6.28;;;3.50;99.90;;;;;;5020057;28;20029;-51
2022/01/10 04:11:25;;;;;;;18.63;6.93;;;3.50;99.90;;;;;;5018198;28;20506;-54
2022/01/10 04:13:51;;;;;;;12.85;5.80;;;3.60;99.90;;;;;;5035139;28;20022;-54
2022/01/10 04:16:16;;;;;;;18.65;5.20;;;3.50;99.90;;;;;;5017909;28;20028;-51
2022/01/10 04:18:42;;;;;;;10.23;5.15;;;3.60;99.90;;;;;;5017361;28;20220;-52
2022/01/10 04:21:08;;;;;;;14.35;5.80;;;3.60;99.90;;;;;;5035248;28;20024;-50
2022/01/10 04:23:34;;;;;;;13.48;6.57;;;3.50;99.90;;;;;;5034928;28;20066;-54
2022/01/10 04:26:00;;;;;;;11.55;5.68;;;3.50;99.90;;;;;;5017110;28;20029;-54
2022/01/10 04:28:26;;;;;;;12.98;6.10;;;3.60;99.90;;;;;;5034472;28;20030;-53
2022/01/10 04:30:52;;;;;;;12.77;6.25;;;3.60;99.90;;;;;;5017174;28;20073;-54
2022/01/10 04:33:19;;;;;;;13.00;5.45;;;3.60;99.90;;;;;;5017066;28;20034;-52
2022/01/10 04:35:46;;;;;;;14.32;6.20;;;3.70;99.90;;;;;;5034781;28;20025;-52
2022/01/10 04:38:12;;;;;;;16.30;6.55;;;3.60;99.90;;;;;;5016956;28;20026;-50
2022/01/10 04:40:38;;;;;;;13.70;6.82;;;3.60;99.90;;;;;;5016982;28;20112;-55
2022/01/10 04:43:04;;;;;;;14.38;6.70;;;3.60;99.90;;;;;;5016937;28;20033;-54
2022/01/10 04:45:29;;;;;;;18.95;7.20;;;3.50;99.90;;;;;;5016868;28;20056;-52
2022/01/10 04:47:55;;;;;;;16.02;5.30;;;3.60;99.90;;;;;;5034437;28;20026;-53
2022/01/10 04:52:47;;;;;;;14.13;5.68;;;3.60;99.90;;;;;;5034606;28;20034;-54
2022/01/10 04:55:14;;;;;;;14.98;6.90;;;3.60;99.90;;;;;;5017531;28;20066;-53
2022/01/10 04:57:40;;;;;;;16.75;7.53;;;3.60;99.90;;;;;;5034196;28;20537;-52
2022/01/10 05:00:09;;;;;;;13.80;6.38;;;3.60;99.90;;;;;;5034377;28;20057;-52
2022/01/10 05:02:34;;;;;;;20.98;6.53;;;3.70;99.90;;;;;;5016448;28;20032;-52
2022/01/10 05:05:00;;;;;;;22.35;11.13;;;3.70;99.90;;;;;;5017365;28;20026;-52
2022/01/10 05:07:25;;;;;;;21.85;9.10;;;3.60;99.90;;;;;;5034098;28;20025;-51
2022/01/10 05:09:51;;;;;;;20.65;9.10;;;3.60;99.90;;;;;;5017217;28;20022;-51
2022/01/10 05:12:17;;;;;;;21.70;9.35;;;3.50;99.90;;;;;;5033945;28;20099;-53
2022/01/10 05:14:42;;;;;;;15.77;7.68;;;3.50;99.90;;;;;;5016318;28;20021;-50
2022/01/10 05:17:10;;;;;;;21.55;10.05;;;3.50;99.90;;;;;;5016249;28;20028;-54
2022/01/10 05:19:35;;;;;;;21.00;9.38;;;3.50;99.90;;;;;;5016019;28;20049;-53
2022/01/10 05:22:02;;;;;;;21.63;6.85;;;3.50;99.90;;;;;;5017006;28;20056;-51
2022/01/10 05:24:27;;;;;;;18.42;6.82;;;3.40;99.90;;;;;;5017048;28;20021;-51
2022/01/10 05:26:53;;;;;;;17.65;7.45;;;3.40;99.90;;;;;;5034071;28;20092;-55
2022/01/10 05:29:19;;;;;;;15.65;6.47;;;3.40;99.90;;;;;;5033551;28;20447;-55
2022/01/10 05:31:44;;;;;;;18.90;7.63;;;3.40;99.90;;;;;;5033630;28;20040;-52
2022/01/10 05:34:10;;;;;;;11.55;5.43;;;3.50;99.90;;;;;;5033616;28;20032;-52
2022/01/10 05:36:36;;;;;;;15.05;5.97;;;3.50;99.90;;;;;;5015961;28;20021;-51
2022/01/10 05:39:02;;;;;;;10.38;5.30;;;3.50;99.90;;;;;;5033085;28;20096;-54
2022/01/10 05:41:28;;;;;;;18.80;5.88;;;3.50;99.90;;;;;;5015789;28;20026;-55
2022/01/10 05:43:55;;;;;;;20.08;5.55;;;3.50;99.90;;;;;;5016144;28;20021;-50
2022/01/10 05:46:21;;;;;;;16.45;5.65;;;3.40;99.90;;;;;;5016610;28;20116;-54
2022/01/10 05:48:49;;;;;;;12.88;5.00;;;3.50;99.90;;;;;;5033696;28;20056;-53
2022/01/10 05:51:19;;;;;;;17.92;6.30;;;3.60;99.90;;;;;;5033466;28;20025;-51
2022/01/10 05:53:45;;;;;;;14.02;5.70;;;3.50;99.90;;;;;;5033637;28;20029;-50
2022/01/10 05:56:11;;;;;;;17.35;6.68;;;3.40;99.90;;;;;;5016240;28;20052;-51
2022/01/10 05:58:37;;;;;;;10.82;5.57;;;3.40;99.90;;;;;;5033324;28;20021;-50
2022/01/10 06:01:03;;;;;;;21.40;7.30;;;3.50;99.90;;;;;;5016221;28;20048;-52
2022/01/10 06:03:28;;;;;;;18.67;7.38;;;3.50;99.90;;;;;;5015687;28;20025;-50
2022/01/10 06:05:54;;;;;;;19.27;7.15;;;3.50;99.90;;;;;;5015887;28;20057;-53
2022/01/10 06:08:20;;;;;;;22.40;9.10;;;3.50;99.90;;;;;;5043991;28;20491;-51
2022/01/10 06:10:45;;;;;;;16.92;7.30;;;3.60;99.90;;;;;;5053173;28;20036;-53
2022/01/10 06:13:11;;;;;;;18.30;7.38;;;3.60;99.90;;;;;;5035231;28;20033;-54
2022/01/10 06:15:37;;;;;;;15.70;6.57;;;3.60;99.90;;;;;;5053063;28;20060;-53
2022/01/10 06:18:03;;;;;;;21.30;6.78;;;3.70;99.90;;;;;;5036281;28;20402;-52
2022/01/10 06:20:29;;;;;;;13.15;7.22;;;3.70;99.90;;;;;;5035391;28;20071;-53
2022/01/10 06:22:54;;;;;;;14.20;6.50;;;3.80;99.90;;;;;;5052958;28;20029;-50
2022/01/10 06:25:24;;;;;;;15.77;6.85;;;3.80;99.90;;;;;;5036327;28;20032;-52
2022/01/10 06:27:50;;;;;;;11.13;5.70;;;3.80;99.90;;;;;;5035709;28;20021;-51
2022/01/10 06:30:16;;;;;;;14.25;5.93;;;3.70;99.90;;;;;;5052859;28;20033;-52
2022/01/10 06:32:42;;;;;;;15.05;6.75;;;3.60;99.90;;;;;;5034995;28;20025;-54
2022/01/10 06:35:08;;;;;;;12.68;5.57;;;3.60;99.90;;;;;;5052908;28;20025;-50
2022/01/10 06:37:34;;;;;;;16.63;6.97;;;3.70;99.90;;;;;;5052830;28;20032;-52
2022/01/10 06:39:59;;;;;;;10.48;5.57;;;3.70;99.90;;;;;;5052888;28;20017;-50
2022/01/10 06:42:25;;;;;;;14.95;6.53;;;3.70;99.90;;;;;;5052846;28;20029;-51
2022/01/10 06:44:50;;;;;;;16.13;7.05;;;3.70;99.90;;;;;;5052768;28;20025;-52
2022/01/10 06:47:16;;;;;;;13.77;6.72;;;3.70;99.90;;;;;;5035258;28;20032;-51
2022/01/10 06:49:42;;;;;;;23.42;9.20;;;3.70;99.90;;;;;;5034972;28;20028;-53
2022/01/10 06:52:08;;;;;;;41.03;15.07;;;3.60;99.90;;;;;;5038124;28;20029;-52
2022/01/10 06:54:33;;;;;;;30.35;9.73;;;3.60;99.90;;;;;;5039475;28;20064;-53
2022/01/10 06:56:59;;;;;;;23.27;9.15;;;3.60;99.90;;;;;;5056498;28;20025;-50
2022/01/10 06:59:28;;;;;;;23.70;9.60;;;3.60;99.90;;;;;;5038591;28;20021;-53
2022/01/10 07:01:58;;;;;;;20.08;10.55;;;3.60;99.90;;;;;;5038867;28;20025;-52
2022/01/10 07:04:25;;;;;;;26.13;8.20;;;3.60;99.90;;;;;;5056448;28;20104;-54
2022/01/10 07:06:51;;;;;;;18.73;8.05;;;3.60;99.90;;;;;;5038760;28;20033;-52
2022/01/10 07:09:17;;;;;;;20.13;6.93;;;3.60;99.90;;;;;;5038511;28;20025;-50
2022/01/10 07:11:43;;;;;;;18.02;7.57;;;3.60;99.90;;;;;;5038937;28;20025;-52
2022/01/10 07:14:11;;;;;;;43.58;15.02;;;3.50;99.90;;;;;;5038427;28;20021;-51
2022/01/10 07:16:36;;;;;;;36.92;11.82;;;3.40;99.90;;;;;;5038205;28;20479;-52
2022/01/10 07:19:02;;;;;;;27.00;10.05;;;3.40;99.90;;;;;;5055994;28;20028;-55
2022/01/10 07:21:28;;;;;;;24.75;8.50;;;3.30;99.90;;;;;;5056531;28;20156;-54
2022/01/10 07:23:54;;;;;;;19.23;7.43;;;3.40;99.90;;;;;;5056086;28;20100;-52
2022/01/10 07:26:19;;;;;;;23.52;8.27;;;3.40;99.90;;;;;;5038485;28;20024;-53
2022/01/10 07:28:45;;;;;;;21.42;8.70;;;3.50;99.90;;;;;;5055816;28;20060;-50
2022/01/10 07:31:10;;;;;;;23.27;9.40;;;3.50;99.90;;;;;;5039185;28;20020;-55
2022/01/10 07:33:37;;;;;;;28.55;9.98;;;3.50;99.90;;;;;;5037857;28;20025;-54
2022/01/10 07:36:03;;;;;;;22.42;9.98;;;3.60;99.90;;;;;;5037887;28;20082;-53
2022/01/10 07:38:35;;;;;;;23.00;9.98;;;3.50;99.90;;;;;;5041045;28;20086;-54
2022/01/10 07:41:02;;;;;;;26.25;10.20;;;3.60;99.90;;;;;;5035778;28;20538;-52
2022/01/10 07:43:28;;;;;;;25.65;9.77;;;3.60;99.90;;;;;;5035696;28;20041;-55
2022/01/10 07:45:53;;;;;;;27.05;9.82;;;3.60;99.90;;;;;;5018162;28;20028;-53
2022/01/10 07:48:19;;;;;;;21.50;9.25;;;3.60;99.90;;;;;;5018141;28;20036;-52
2022/01/10 07:50:45;;;;;;;27.33;10.15;;;3.60;99.90;;;;;;5035533;28;20029;-53
2022/01/10 07:53:10;;;;;;;22.20;9.68;;;3.50;99.90;;;;;;5035447;28;20025;-54
2022/01/10 07:55:36;;;;;;;17.63;8.48;;;3.50;99.90;;;;;;5018254;28;20032;-57
2022/01/10 07:58:25;;;;;;;20.65;9.05;;;3.50;99.90;;;;;;5018522;28;20094;-55
2022/01/10 08:00:50;;;;;;;18.85;7.93;;;3.50;99.90;;;;;;5035584;28;20023;-54
2022/01/10 08:03:16;;;;;;;20.70;8.38;;;3.60;99.90;;;;;;5035201;28;20112;-53
2022/01/10 08:05:42;;;;;;;18.75;7.00;;;3.60;99.90;;;;;;5017793;28;20116;-57
2022/01/10 08:08:08;;;;;;;17.45;7.65;;;3.70;99.90;;;;;;5035257;28;20033;-53
2022/01/10 08:10:34;;;;;;;15.43;7.43;;;3.60;99.90;;;;;;5018036;28;20092;-54
2022/01/10 08:12:59;;;;;;;22.88;8.88;;;3.60;99.90;;;;;;5017449;28;20116;-57
2022/01/10 08:15:25;;;;;;;19.58;8.45;;;3.70;99.90;;;;;;5017420;28;20064;-57
2022/01/10 08:17:51;;;;;;;21.27;8.52;;;3.80;99.90;;;;;;5035006;28;20044;-58
2022/01/10 08:20:16;;;;;;;16.33;7.43;;;3.90;99.90;;;;;;5017439;28;20025;-56
2022/01/10 08:22:42;;;;;;;14.05;6.35;;;4.00;99.90;;;;;;5017540;28;20049;-52
2022/01/10 08:25:08;;;;;;;14.20;6.57;;;3.90;99.90;;;;;;5018140;28;20100;-57
2022/01/10 08:27:35;;;;;;;21.48;7.07;;;3.80;99.90;;;;;;5017053;28;20033;-56
2022/01/10 08:30:02;;;;;;;19.00;8.32;;;3.90;99.90;;;;;;5016936;28;20118;-54
2022/01/10 08:32:28;;;;;;;31.95;11.90;;;3.90;99.90;;;;;;5034774;28;20035;-59
2022/01/10 08:34:53;;;;;;;27.23;9.55;;;3.80;99.90;;;;;;5034820;28;20030;-59
2022/01/10 08:37:21;;;;;;;24.40;8.88;;;3.80;99.90;;;;;;5035072;28;20024;-56
2022/01/10 08:39:49;;;;;;;27.20;11.85;;;3.90;99.90;;;;;;5018072;28;20021;-51
2022/01/10 08:43:10;;;;;;;28.13;10.52;;;4.00;99.90;;;;;;5017830;28;20037;-54
2022/01/10 08:45:36;;;;;;;21.65;8.63;;;4.10;99.90;;;;;;5034838;28;20025;-57
2022/01/10 08:48:02;;;;;;;21.33;8.20;;;4.20;99.90;;;;;;5017088;28;20124;-54
2022/01/10 08:50:28;;;;;;;21.58;9.38;;;4.30;99.90;;;;;;5017670;28;20108;-58
2022/01/10 08:52:53;;;;;;;17.83;8.40;;;4.40;99.90;;;;;;5016805;28;20101;-58
2022/01/10 08:55:19;;;;;;;20.95;8.80;;;4.40;99.90;;;;;;5016626;28;20021;-54
2022/01/10 08:57:44;;;;;;;24.92;8.27;;;4.50;99.90;;;;;;5016872;28;20025;-55
2022/01/10 09:04:27;;;;;;;19.65;7.68;;;4.60;99.90;;;;;;5034413;28;20036;-57
2022/01/10 09:06:54;;;;;;;21.17;7.50;;;4.90;99.90;;;;;;5016368;28;20033;-56
2022/01/10 09:09:22;;;;;;;16.63;6.78;;;5.10;99.90;;;;;;5016694;28;20021;-57
2022/01/10 09:11:48;;;;;;;21.38;7.30;;;5.10;99.90;;;;;;5034294;28;20472;-57
2022/01/10 09:14:14;;;;;;;18.35;6.25;;;5.30;99.90;;;;;;5015558;28;20047;-58
2022/01/10 09:16:41;;;;;;;15.32;7.03;;;5.30;99.90;;;;;;5016597;28;20021;-53
2022/01/10 09:19:07;;;;;;;16.70;6.70;;;5.30;99.90;;;;;;5016194;28;20124;-56
2022/01/10 09:21:33;;;;;;;16.80;6.65;;;5.30;99.90;;;;;;5052191;28;20096;-55
2022/01/10 09:24:00;;;;;;;23.02;6.85;;;5.20;99.90;;;;;;5053547;28;20075;-54
2022/01/10 09:26:26;;;;;;;22.58;9.07;;;5.30;99.90;;;;;;5035876;28;20031;-54
2022/01/10 09:28:52;;;;;;;33.42;11.60;;;5.30;99.90;;;;;;5035308;28;20029;-53
2022/01/10 09:31:19;;;;;;;28.48;11.02;;;5.30;99.90;;;;;;5053439;28;20089;-55
2022/01/10 09:33:52;;;;;;;20.58;8.40;;;5.30;99.90;;;;;;5035509;28;20029;-53
2022/01/10 09:36:17;;;;;;;24.00;8.02;;;5.30;99.90;;;;;;5053479;28;20096;-51
2022/01/10 09:38:43;;;;;;;32.75;13.90;;;5.40;99.90;;;;;;5035837;28;20043;-58
2022/01/10 09:41:08;;;;;;;20.83;8.02;;;5.40;99.90;;;;;;5035546;28;20028;-51
2022/01/10 09:43:35;;;;;;;15.90;7.60;;;5.20;99.90;;;;;;5035405;28;20025;-55
2022/01/10 09:46:01;;;;;;;19.60;8.10;;;5.20;99.90;;;;;;5035395;28;20047;-53
2022/01/10 09:48:26;;;;;;;22.33;7.38;;;5.40;99.90;;;;;;5035156;28;20443;-52
2022/01/10 09:50:52;;;;;;;19.73;7.50;;;6.00;99.90;;;;;;5053194;28;20025;-53
2022/01/10 09:57:31;;;;;;;13.57;7.35;;;6.10;99.90;;;;;;5053536;28;20028;-55
2022/01/10 10:06:41;;;;;;;19.60;7.22;;;6.60;99.90;;;;;;5013840;28;20535;-57
2022/01/10 10:09:35;;;;;;;15.57;6.93;;;6.60;99.90;;;;;;4996112;28;20022;-56
2022/01/10 10:12:03;;;;;;;19.40;7.43;;;6.80;99.90;;;;;;5045917;28;20021;-51
2022/01/10 10:14:29;;;;;;;20.10;7.13;;;6.80;99.90;;;;;;5043313;28;20096;-52
2022/01/10 10:16:56;;;;;;;19.98;7.88;;;7.00;99.90;;;;;;5020037;28;20049;-51
2022/01/10 10:19:29;;;;;;;25.67;7.03;;;7.20;99.90;;;;;;5013315;28;20022;-52
2022/01/10 10:21:57;;;;;;;30.25;9.02;;;7.20;99.90;;;;;;4995829;28;20026;-55
2022/01/10 10:24:23;;;;;;;23.98;7.32;;;7.20;99.90;;;;;;5003681;28;20028;-53
2022/01/10 10:26:50;;;;;;;25.20;6.93;;;7.20;99.90;;;;;;5037092;28;20029;-51
2022/01/10 10:29:17;;;;;;;16.23;6.85;;;7.30;99.90;;;;;;5037034;28;20042;-55
2022/01/10 10:31:47;;;;;;;14.57;6.32;;;7.40;99.90;;;;;;5036824;28;20045;-49
2022/01/10 10:34:20;;;;;;;15.48;5.75;;;7.40;99.90;;;;;;5019785;28;20025;-51
2022/01/10 10:36:57;;;;;;;24.00;6.75;;;7.40;99.90;;;;;;5035698;28;20032;-52
2022/01/10 10:39:25;;;;;;;16.65;6.75;;;7.50;99.90;;;;;;5018797;28;20048;-55
2022/01/10 10:42:11;;;;;;;18.40;6.43;;;7.60;99.90;;;;;;5019179;28;20063;-52
2022/01/10 10:44:39;;;;;;;20.10;7.50;;;7.60;99.90;;;;;;5019054;28;20029;-50
2022/01/10 10:47:04;;;;;;;18.52;6.93;;;7.50;99.90;;;;;;5018887;28;20045;-54
2022/01/10 10:49:35;;;;;;;16.98;6.90;;;7.50;99.90;;;;;;5019014;28;20064;-55
2022/01/10 10:52:05;;;;;;;15.38;7.22;;;7.50;99.90;;;;;;5036537;28;20022;-54
2022/01/10 10:54:32;;;;;;;14.90;6.65;;;7.50;99.90;;;;;;5018804;28;20495;-55
2022/01/10 10:57:04;;;;;;;15.52;6.15;;;7.60;99.90;;;;;;5018562;28;20022;-52
2022/01/10 10:59:32;;;;;;;20.30;7.10;;;7.80;99.90;;;;;;5018850;28;20017;-53
2022/01/10 11:01:58;;;;;;;15.20;6.85;;;7.80;99.90;;;;;;5036427;28;20029;-51
2022/01/10 11:04:24;;;;;;;18.13;7.03;;;7.70;99.90;;;;;;5018764;28;20036;-54
2022/01/10 11:07:35;;;;;;;15.50;6.28;;;7.50;99.90;;;;;;5036324;28;20026;-52
2022/01/10 11:10:06;;;;;;;14.57;7.13;;;7.50;99.90;;;;;;5018822;28;20037;-56
2022/01/10 11:12:36;;;;;;;20.17;7.85;;;7.40;99.90;;;;;;5036519;28;20021;-53
2022/01/10 11:15:08;;;;;;;20.13;7.50;;;7.40;99.90;;;;;;5018705;28;20036;-51
2022/01/10 11:17:34;;;;;;;23.70;8.05;;;7.30;99.90;;;;;;5036090;28;20507;-55
2022/01/10 11:20:38;;;;;;;12.15;6.63;;;7.40;99.90;;;;;;5018514;28;20025;-54
2022/01/10 11:23:06;;;;;;;18.10;7.32;;;7.30;99.90;;;;;;5012594;28;20572;-51
2022/01/10 11:25:39;;;;;;;20.13;7.45;;;7.30;99.90;;;;;;5018172;28;20085;-51
2022/01/10 11:28:08;;;;;;;17.58;6.78;;;7.50;99.90;;;;;;5035941;28;20025;-51
2022/01/10 11:30:36;;;;;;;21.05;7.55;;;7.60;99.90;;;;;;5035783;28;20117;-52
2022/01/10 11:33:13;;;;;;;19.80;7.65;;;7.70;99.90;;;;;;5018012;28;20048;-53
2022/01/10 11:35:47;;;;;;;24.10;7.70;;;7.90;99.90;;;;;;5035872;28;20443;-51
2022/01/10 11:38:20;;;;;;;14.68;6.93;;;7.90;99.90;;;;;;5017428;28;20083;-51
2022/01/10 11:40:48;;;;;;;15.48;7.18;;;8.00;99.90;;;;;;4998344;28;20056;-52
2022/01/10 11:44:07;;;;;;;18.13;8.27;;;7.80;99.90;;;;;;4998623;28;20121;-54
2022/01/10 11:46:40;;;;;;;22.23;7.50;;;7.70;99.90;;;;;;4998324;28;20057;-54
2022/01/10 11:49:09;;;;;;;17.92;6.68;;;7.90;99.90;;;;;;5015988;28;20029;-55
2022/01/10 11:51:36;;;;;;;19.58;6.93;;;7.90;99.90;;;;;;5015634;28;20088;-55
2022/01/10 11:54:10;;;;;;;20.17;7.18;;;7.90;99.90;;;;;;4998593;28;20018;-55
2022/01/10 11:56:44;;;;;;;21.55;7.60;;;7.80;99.90;;;;;;4998705;28;20033;-51
2022/01/10 11:59:11;;;;;;;17.48;7.13;;;7.80;99.90;;;;;;4998243;28;20033;-52
2022/01/10 12:01:47;;;;;;;20.30;7.40;;;7.70;99.90;;;;;;4997921;28;20028;-55
2022/01/10 12:04:14;;;;;;;17.02;7.53;;;7.60;99.90;;;;;;5015498;28;20022;-51
2022/01/10 12:06:40;;;;;;;17.95;7.82;;;7.50;99.90;;;;;;5018017;28;20026;-52
2022/01/10 12:09:07;;;;;;;22.60;8.43;;;7.50;99.90;;;;;;5017506;28;20099;-51
2022/01/10 12:14:56;;;;;;;19.55;7.32;;;7.30;99.90;;;;;;5015566;28;20093;-53
2022/01/10 12:17:21;;;;;;;17.80;7.72;;;7.40;99.90;;;;;;5013941;28;20037;-53
2022/01/10 12:19:47;;;;;;;20.83;8.02;;;7.40;99.90;;;;;;4997826;28;20018;-51
2022/01/10 12:22:13;;;;;;;18.23;6.82;;;7.40;99.90;;;;;;4997639;28;20032;-51
2022/01/10 12:24:42;;;;;;;15.82;7.30;;;7.30;99.90;;;;;;4997851;28;20026;-54
2022/01/10 12:27:12;;;;;;;19.30;6.68;;;7.30;99.90;;;;;;4997506;28;20036;-52
2022/01/10 12:29:38;;;;;;;17.05;5.55;;;7.30;99.90;;;;;;5014836;28;20034;-51
2022/01/10 12:32:08;;;;;;;11.13;5.93;;;7.40;99.90;;;;;;5021124;28;20026;-51
2022/01/10 12:34:34;;;;;;;18.60;7.13;;;7.40;99.90;;;;;;5014056;28;20026;-54
2022/01/10 12:36:59;;;;;;;24.02;7.22;;;7.40;99.90;;;;;;4997316;28;20543;-54
2022/01/10 12:39:27;;;;;;;18.08;7.40;;;7.40;99.90;;;;;;5014766;28;20037;-56
2022/01/10 12:41:58;;;;;;;20.88;7.95;;;7.40;99.90;;;;;;4997541;28;20021;-53
2022/01/10 12:44:27;;;;;;;29.75;10.95;;;7.40;99.90;;;;;;5014902;28;20033;-52
2022/01/10 12:46:54;;;;;;;21.23;7.40;;;7.40;99.90;;;;;;5014926;28;20072;-56
2022/01/10 12:49:19;;;;;;;23.75;9.18;;;7.40;99.90;;;;;;4996062;28;20058;-56
2022/01/10 12:52:23;;;;;;;22.48;8.70;;;7.30;99.90;;;;;;5013241;28;20045;-54
2022/01/10 12:54:50;;;;;;;12.70;6.75;;;7.40;99.90;;;;;;4996931;28;20049;-52
2022/01/10 12:57:17;;;;;;;15.00;5.88;;;7.50;99.90;;;;;;5013363;28;20026;-52
2022/01/10 12:59:44;;;;;;;14.82;5.95;;;7.60;99.90;;;;;;5014388;28;20045;-53
2022/01/10 13:02:10;;;;;;;16.23;7.15;;;7.70;99.90;;;;;;5014481;28;20026;-51
2022/01/10 13:04:40;;;;;;;17.75;5.57;;;7.90;99.90;;;;;;5013174;28;20033;-56
2022/01/10 13:07:16;;;;;;;13.77;6.22;;;8.00;99.90;;;;;;5021138;28;20157;-57
2022/01/10 13:09:43;;;;;;;10.93;5.50;;;8.10;99.90;;;;;;4996594;28;20037;-55
2022/01/10 13:12:28;;;;;;;10.82;5.25;;;8.10;99.90;;;;;;4996904;28;20037;-51
2022/01/10 13:15:04;;;;;;;25.23;6.63;;;8.10;99.90;;;;;;5014291;28;20045;-55
2022/01/10 13:17:30;;;;;;;14.70;6.65;;;8.10;99.90;;;;;;5014091;28;20029;-55
2022/01/10 13:20:23;;;;;;;16.55;5.97;;;8.10;99.90;;;;;;4996586;28;20025;-54
2022/01/10 13:22:56;;;;;;;15.18;5.07;;;8.00;99.90;;;;;;4994750;28;20034;-55